createdAt,value
2022-09-05T00:02:03.469Z,100642.88
2022-09-05T00:07:31.103Z,100638.94
2022-09-05T00:12:42.702Z,100641.06
2022-09-05T00:19:03.879Z,100636.50
2022-09-05T00:24:32.277Z,100632.00
2022-09-05T00:29:16.274Z,100631.06
2022-09-05T00:34:47.756Z,100633.50
2022-09-05T00:40:17.962Z,100630.75
2022-09-05T00:45:25.283Z,100625.63
2022-09-05T00:50:43.117Z,100622.31
2022-09-05T00:56:15.960Z,100607.69
2022-09-05T01:01:38.734Z,100611.41
2022-09-05T01:07:09.407Z,100602.16
2022-09-05T01:12:48.546Z,100606.06
2022-09-05T01:18:00.377Z,100613.38
2022-09-05T01:23:29.986Z,100604.91
2022-09-05T01:29:18.449Z,100620.97
2022-09-05T01:34:54.352Z,100617.78
2022-09-05T01:40:26.348Z,100619.00
2022-09-05T01:45:57.035Z,100618.75
2022-09-05T01:51:42.161Z,100624.97
2022-09-05T01:56:49.893Z,100613.03
2022-09-05T02:02:23.811Z,100619.50
2022-09-05T02:08:16.090Z,100616.28
2022-09-05T02:13:33.825Z,100620.81
2022-09-05T02:19:09.666Z,100624.19
2022-09-05T02:24:23.992Z,100626.56
2022-09-05T02:29:36.151Z,100635.53
2022-09-05T02:34:50.924Z,100628.63
2022-09-05T02:45:04.365Z,100626.84
2022-09-05T02:46:04.062Z,100630.41
2022-09-05T02:55:17.861Z,100634.00
2022-09-05T02:57:44.999Z,100632.06
2022-09-05T03:02:30.217Z,100632.19
2022-09-05T03:07:50.214Z,100630.03
2022-09-05T03:13:01.463Z,100636.63
2022-09-05T03:18:37.324Z,100625.88
2022-09-05T03:24:00.604Z,100627.16
2022-09-05T03:29:14.543Z,100622.38
2022-09-05T03:34:47.250Z,100631.22
2022-09-05T03:40:16.817Z,100627.66
2022-09-05T03:45:37.772Z,100627.66
2022-09-05T03:57:07.682Z,100627.66
2022-09-05T03:57:28.307Z,100617.38
2022-09-05T04:07:04.991Z,100626.22
2022-09-05T04:08:15.119Z,100624.78
2022-09-05T04:13:36.898Z,100625.88
2022-09-05T04:18:48.798Z,100634.72
2022-09-05T04:24:12.881Z,100625.63
2022-09-05T04:29:39.590Z,100627.88
2022-09-05T04:35:10.456Z,100627.88
2022-09-05T04:40:32.974Z,100640.91
2022-09-05T04:45:51.436Z,100640.69
2022-09-05T04:51:08.297Z,100647.63
2022-09-05T04:56:20.354Z,100656.47
2022-09-05T05:06:00.769Z,100665.44
2022-09-05T05:07:22.829Z,100675.75
2022-09-05T05:17:59.035Z,100685.31
2022-09-05T05:18:38.644Z,100694.41
2022-09-05T05:23:52.878Z,100696.41
2022-09-05T05:29:19.559Z,100705.28
2022-09-05T05:34:30.313Z,100702.88
2022-09-05T05:39:36.894Z,100720.09
2022-09-05T05:44:39.106Z,100715.75
2022-09-05T05:49:59.001Z,100720.53
2022-09-05T05:55:50.353Z,100732.25
2022-09-05T06:00:53.289Z,100742.09
2022-09-05T06:06:25.715Z,100747.09
2022-09-05T06:14:58.708Z,100762.47
2022-09-05T06:17:28.096Z,100773.97
2022-09-05T06:22:59.667Z,100770.22
2022-09-05T06:28:44.814Z,100774.22
2022-09-05T06:33:58.311Z,100783.47
2022-09-05T06:39:11.208Z,100781.59
2022-09-05T06:44:45.100Z,100792.72
2022-09-05T06:50:26.857Z,100792.50
2022-09-05T06:56:11.055Z,100797.91
2022-09-05T07:01:44.758Z,100801.47
2022-09-05T07:07:09.937Z,100797.16
2022-09-05T07:12:28.649Z,100816.97
2022-09-05T07:18:08.642Z,100813.06
2022-09-05T07:23:46.062Z,100832.25
2022-09-05T07:28:52.825Z,100825.88
2022-09-05T07:34:21.276Z,100839.47
2022-09-05T07:39:29.603Z,100849.47
2022-09-05T07:44:38.791Z,100834.06
2022-09-05T07:49:56.585Z,100832.06
2022-09-05T07:57:06.381Z,100834.13
2022-09-05T08:00:52.874Z,100836.16
2022-09-05T08:05:59.490Z,100837.66
2022-09-05T08:11:24.277Z,100844.00
2022-09-05T08:16:28.225Z,100837.94
2022-09-05T08:21:51.944Z,100835.72
2022-09-05T08:27:18.218Z,100838.22
2022-09-05T08:32:46.322Z,100841.56
2022-09-05T08:37:51.841Z,100841.09
2022-09-05T08:45:35.157Z,100841.84
2022-09-05T08:49:36.470Z,100848.19
2022-09-05T08:55:21.680Z,100849.88
2022-09-05T09:00:24.681Z,100858.03
2022-09-05T09:05:56.667Z,100851.56
2022-09-05T09:11:05.482Z,100849.44
2022-09-05T09:16:25.692Z,100861.50
2022-09-05T09:21:42.606Z,100851.09
2022-09-05T09:27:04.803Z,100839.41
2022-09-05T09:32:15.161Z,100838.06
2022-09-05T09:37:50.093Z,100846.56
2022-09-05T09:43:07.073Z,100839.09
2022-09-05T09:48:30.408Z,100826.13
2022-09-05T09:53:53.309Z,100819.56
2022-09-05T09:59:08.687Z,100811.59
2022-09-05T10:10:39.166Z,100807.53
2022-09-05T10:10:53.065Z,100809.19
2022-09-05T10:15:31.302Z,100796.28
2022-09-05T10:21:13.899Z,100795.59
2022-09-05T10:26:37.258Z,100789.59
2022-09-05T10:35:10.271Z,100773.53
2022-09-05T10:37:40.450Z,100780.22
2022-09-05T10:43:00.998Z,100763.75
2022-09-05T10:48:29.741Z,100753.63
2022-09-05T10:54:23.973Z,100766.75
2022-09-05T11:02:22.883Z,100757.91
2022-09-05T11:05:06.309Z,100769.72
2022-09-05T11:10:17.420Z,100759.00
2022-09-05T11:15:27.303Z,100753.41
2022-09-05T11:20:35.069Z,100755.22
2022-09-05T11:25:41.019Z,100749.63
2022-09-05T11:30:54.715Z,100752.28
2022-09-05T11:39:58.279Z,100751.59
2022-09-05T11:42:07.193Z,100737.41
2022-09-05T11:47:40.944Z,100736.06
2022-09-05T11:53:04.932Z,100739.22
2022-09-05T11:58:53.808Z,100722.72
2022-09-05T12:04:09.993Z,100711.78
2022-09-05T12:09:31.903Z,100719.22
2022-09-05T12:14:55.025Z,100708.28
2022-09-05T12:20:16.766Z,100699.16
2022-09-05T12:27:38.153Z,100694.53
2022-09-05T12:32:34.447Z,100684.09
2022-09-05T12:42:10.308Z,100675.19
2022-09-05T12:42:19.956Z,100659.59
2022-09-05T12:47:30.250Z,100663.28
2022-09-05T12:52:33.754Z,100672.19
2022-09-05T13:00:58.506Z,100670.38
2022-09-05T13:03:27.836Z,100651.13
2022-09-05T13:08:44.040Z,100668.00
2022-09-05T13:14:55.027Z,100673.81
2022-09-05T13:19:33.997Z,100649.94
2022-09-05T13:24:41.478Z,100655.25
2022-09-05T13:31:23.260Z,100647.03
2022-09-05T13:38:06.158Z,100635.19
2022-09-05T13:47:49.776Z,100632.22
2022-09-05T13:53:19.524Z,100612.72
2022-09-05T13:58:50.992Z,100609.41
2022-09-05T14:09:59.965Z,100620.34
2022-09-05T14:15:09.432Z,100616.03
2022-09-05T14:20:30.682Z,100632.53
2022-09-05T14:25:44.277Z,100627.59
2022-09-05T14:32:53.095Z,100607.59
2022-09-05T14:37:53.650Z,100608.56
2022-09-05T14:42:15.839Z,100600.41
2022-09-05T14:47:36.382Z,100602.03
2022-09-05T14:52:43.431Z,100608.91
2022-09-05T15:02:46.439Z,100604.78
2022-09-05T15:12:14.023Z,100648.97
2022-09-05T15:14:38.466Z,100627.28
2022-09-05T15:19:49.373Z,100616.16
2022-09-05T15:25:22.641Z,100612.19
2022-09-05T15:30:36.539Z,100602.84
2022-09-05T15:35:43.443Z,100605.00
2022-09-05T15:40:45.151Z,100578.72
2022-09-05T15:45:50.070Z,100560.91
2022-09-05T15:50:55.424Z,100540.31
2022-09-05T15:56:18.163Z,100544.59
2022-09-05T16:01:35.868Z,100532.66
2022-09-05T16:10:28.588Z,100528.69
2022-09-05T16:12:43.958Z,100546.84
2022-09-05T16:24:58.092Z,100456.78
2022-09-05T16:30:02.006Z,100402.16
2022-09-05T16:35:08.109Z,100388.84
2022-09-05T16:40:25.612Z,100402.84
2022-09-05T16:45:47.571Z,100410.44
2022-09-05T16:51:13.246Z,100424.03
2022-09-05T16:56:23.567Z,100452.31
2022-09-05T17:01:54.691Z,100477.78
2022-09-05T17:07:21.299Z,100508.84
2022-09-05T17:12:31.350Z,100509.03
2022-09-05T17:18:22.732Z,100497.88
2022-09-05T17:28:01.149Z,100469.34
2022-09-05T17:29:32.868Z,100430.88
2022-09-05T17:34:20.912Z,100369.13
2022-09-05T17:39:44.920Z,100334.28
2022-09-05T17:44:59.874Z,100311.47
2022-09-05T17:50:33.086Z,100295.34
2022-09-05T17:55:34.910Z,100293.66
2022-09-05T18:00:44.078Z,100285.81
2022-09-05T18:06:01.073Z,100279.25
2022-09-05T18:11:14.011Z,100275.44
2022-09-05T18:16:42.136Z,100274.19
2022-09-05T18:22:21.555Z,100288.88
2022-09-05T18:28:03.373Z,100296.16
2022-09-05T18:33:53.593Z,100322.56
2022-09-05T18:38:49.960Z,100340.03
2022-09-05T18:44:20.377Z,100356.81
2022-09-05T18:50:24.179Z,100356.56
2022-09-05T18:56:10.575Z,100356.03
2022-09-05T19:00:24.666Z,100376.03
2022-09-05T19:05:46.001Z,100381.72
2022-09-05T19:10:52.392Z,100387.44
2022-09-05T19:16:42.682Z,100375.88
2022-09-05T19:21:33.506Z,100380.44
2022-09-05T19:26:35.524Z,100373.84
2022-09-05T19:36:49.198Z,100369.78
2022-09-05T19:37:26.102Z,100364.22
2022-09-05T19:47:37.696Z,100377.81
2022-09-05T19:48:18.039Z,100373.34
2022-09-05T19:53:21.070Z,100371.34
2022-09-05T19:58:24.552Z,100362.09
2022-09-05T20:03:26.153Z,100366.50
2022-09-05T20:08:34.199Z,100354.81
2022-09-05T20:13:35.787Z,100349.91
2022-09-05T20:18:42.718Z,100350.53
2022-09-05T20:23:49.220Z,100358.94
2022-09-05T20:29:01.309Z,100354.00
2022-09-05T20:34:56.789Z,100346.16
2022-09-05T20:43:32.631Z,100344.53
2022-09-05T20:45:05.037Z,100348.75
2022-09-05T20:54:06.322Z,100344.69
2022-09-05T20:55:44.868Z,100352.19
2022-09-05T21:01:20.299Z,100362.47
2022-09-05T21:06:33.755Z,100366.34
2022-09-05T21:11:35.975Z,100352.50
2022-09-05T21:16:45.274Z,100350.28
2022-09-05T21:22:05.028Z,100353.66
2022-09-05T21:27:15.440Z,100340.66
2022-09-05T21:32:18.502Z,100348.19
2022-09-05T21:37:21.424Z,100349.31
2022-09-05T21:44:37.885Z,100343.22
2022-09-05T21:47:53.178Z,100337.69
2022-09-05T21:52:58.977Z,100340.75
2022-09-05T21:59:27.447Z,100340.47
2022-09-05T22:03:40.200Z,100337.97
2022-09-05T22:08:42.639Z,100334.34
2022-09-05T22:14:04.173Z,100334.31
2022-09-05T22:19:05.745Z,100331.31
2022-09-05T22:24:11.292Z,100337.94
2022-09-05T22:29:16.390Z,100329.88
2022-09-05T22:34:17.951Z,100321.59
2022-09-05T22:39:27.412Z,100314.88
2022-09-05T22:44:39.974Z,100322.59
2022-09-05T22:49:41.533Z,100321.47
2022-09-05T22:54:43.095Z,100318.66
2022-09-05T22:59:44.638Z,100305.63
2022-09-05T23:04:46.189Z,100306.16
2022-09-05T23:09:47.833Z,100305.81
2022-09-05T23:14:49.426Z,100291.13
2022-09-05T23:19:50.977Z,100294.72
2022-09-05T23:24:52.564Z,100297.75
2022-09-05T23:29:54.132Z,100303.22
2022-09-05T23:34:55.688Z,100302.94
2022-09-05T23:39:57.929Z,100299.59
2022-09-05T23:44:59.515Z,100298.72
2022-09-05T23:50:01.080Z,100291.19
2022-09-05T23:55:02.663Z,100287.28
